createdAt,value
2023-02-03T00:02:02.241Z,100752.92
2023-02-03T00:04:29.532Z,100749.77
2023-02-03T00:06:56.414Z,100752.28
2023-02-03T00:09:23.467Z,100750.20
2023-02-03T00:11:50.487Z,100750.94
2023-02-03T00:14:17.596Z,100752.55
2023-02-03T00:16:44.950Z,100753.63
2023-02-03T00:19:12.128Z,100761.27
2023-02-03T00:21:39.113Z,100765.10
2023-02-03T00:24:06.390Z,100762.58
2023-02-03T00:26:34.011Z,100762.71
2023-02-03T00:29:01.811Z,100763.29
2023-02-03T00:31:29.567Z,100762.95
2023-02-03T00:33:56.946Z,100763.60
2023-02-03T00:36:24.687Z,100761.80
2023-02-03T00:38:51.599Z,100765.63
2023-02-03T00:41:18.911Z,100761.09
2023-02-03T00:43:46.137Z,100762.70
2023-02-03T00:46:14.671Z,100764.21
2023-02-03T00:48:41.692Z,100773.50
2023-02-03T00:51:08.774Z,100783.98
2023-02-03T00:53:35.726Z,100773.23
2023-02-03T00:56:02.975Z,100775.94
2023-02-03T00:58:30.086Z,100781.64
2023-02-03T01:00:57.376Z,100791.58
2023-02-03T01:03:25.013Z,100790.07
2023-02-03T01:05:52.217Z,100794.09
2023-02-03T01:08:19.686Z,100790.28
2023-02-03T01:10:46.673Z,100787.71
2023-02-03T01:13:13.873Z,100786.02
2023-02-03T01:15:47.740Z,100785.54
2023-02-03T01:18:14.801Z,100782.73
2023-02-03T01:20:41.797Z,100790.45
2023-02-03T01:23:08.815Z,100786.06
2023-02-03T01:25:37.593Z,100784.64
2023-02-03T01:28:05.563Z,100779.73
2023-02-03T01:30:32.717Z,100781.55
2023-02-03T01:33:00.229Z,100784.04
2023-02-03T01:35:27.218Z,100789.92
2023-02-03T01:37:54.097Z,100796.05
2023-02-03T01:40:22.391Z,100794.62
2023-02-03T01:42:49.415Z,100791.74
2023-02-03T01:45:16.676Z,100796.20
2023-02-03T01:47:47.053Z,100788.73
2023-02-03T01:50:22.406Z,100786.44
2023-02-03T01:52:52.706Z,100788.83
2023-02-03T01:55:21.717Z,100791.91
2023-02-03T01:57:55.876Z,100801.84
2023-02-03T02:00:24.733Z,100801.84
2023-02-03T02:02:54.644Z,100802.38
2023-02-03T02:05:24.604Z,100801.61
2023-02-03T02:07:51.530Z,100800.43
2023-02-03T02:10:18.482Z,100798.71
2023-02-03T02:12:45.754Z,100799.30
2023-02-03T02:15:13.702Z,100795.01
2023-02-03T02:17:56.059Z,100800.44
2023-02-03T02:20:36.442Z,100802.11
2023-02-03T02:23:09.447Z,100807.58
2023-02-03T02:25:36.429Z,100807.05
2023-02-03T02:28:07.548Z,100808.43
2023-02-03T02:30:53.776Z,100808.56
2023-02-03T02:33:21.777Z,100817.83
2023-02-03T02:35:51.643Z,100816.55
2023-02-03T02:38:46.089Z,100820.58
2023-02-03T02:41:18.145Z,100820.85
2023-02-03T02:43:49.588Z,100815.70
2023-02-03T02:46:46.982Z,100821.54
2023-02-03T02:49:24.758Z,100823.67
2023-02-03T02:51:51.749Z,100826.00
2023-02-03T02:54:22.257Z,100825.17
2023-02-03T02:56:53.103Z,100825.38
2023-02-03T02:59:19.999Z,100827.84
2023-02-03T03:01:47.212Z,100828.73
2023-02-03T03:04:15.555Z,100826.96
2023-02-03T03:06:45.811Z,100827.16
2023-02-03T03:09:18.974Z,100829.09
2023-02-03T03:11:49.995Z,100827.14
2023-02-03T03:14:18.083Z,100832.20
2023-02-03T03:16:48.545Z,100835.58
2023-02-03T03:19:18.555Z,100843.90
2023-02-03T03:21:48.982Z,100859.60
2023-02-03T03:24:20.006Z,100856.28
2023-02-03T03:26:51.976Z,100867.45
2023-02-03T03:29:34.728Z,100871.73
2023-02-03T03:32:02.312Z,100864.25
2023-02-03T03:34:29.495Z,100864.83
2023-02-03T03:37:14.782Z,100866.42
2023-02-03T03:39:54.635Z,100869.58
2023-02-03T03:42:55.597Z,100867.13
2023-02-03T03:45:28.229Z,100866.08
2023-02-03T03:47:56.959Z,100862.73
2023-02-03T03:50:55.270Z,100865.16
2023-02-03T03:53:22.937Z,100864.20
2023-02-03T03:55:50.853Z,100864.30
2023-02-03T03:58:23.757Z,100864.25
2023-02-03T04:00:50.947Z,100862.66
2023-02-03T04:03:21.624Z,100867.91
2023-02-03T04:05:48.867Z,100871.39
2023-02-03T04:08:16.023Z,100874.70
2023-02-03T04:10:43.116Z,100879.41
2023-02-03T04:13:10.572Z,100878.70
2023-02-03T04:15:39.720Z,100880.44
2023-02-03T04:18:06.806Z,100875.50
2023-02-03T04:20:33.982Z,100878.29
2023-02-03T04:23:01.227Z,100875.33
2023-02-03T04:25:28.577Z,100877.62
2023-02-03T04:27:56.463Z,100873.79
2023-02-03T04:30:24.008Z,100881.15
2023-02-03T04:32:51.454Z,100878.36
2023-02-03T04:35:18.709Z,100876.77
2023-02-03T04:37:45.958Z,100876.95
2023-02-03T04:40:13.251Z,100877.45
2023-02-03T04:42:40.973Z,100881.83
2023-02-03T04:45:09.162Z,100884.97
2023-02-03T04:47:37.192Z,100886.36
2023-02-03T04:50:04.408Z,100886.88
2023-02-03T04:52:32.344Z,100895.10
2023-02-03T04:54:59.723Z,100893.52
2023-02-03T04:57:26.697Z,100894.63
2023-02-03T04:59:53.730Z,100897.08
2023-02-03T05:02:20.657Z,100902.82
2023-02-03T05:04:47.584Z,100901.89
2023-02-03T05:07:14.686Z,100904.30
2023-02-03T05:09:41.898Z,100906.36
2023-02-03T05:12:09.245Z,100906.70
2023-02-03T05:14:37.883Z,100908.79
2023-02-03T05:17:04.923Z,100906.13
2023-02-03T05:19:32.614Z,100906.18
2023-02-03T05:21:59.953Z,100907.13
2023-02-03T05:24:27.145Z,100910.77
2023-02-03T05:26:54.254Z,100904.91
2023-02-03T05:29:21.408Z,100906.25
2023-02-03T05:31:48.636Z,100908.15
2023-02-03T05:34:16.515Z,100911.83
2023-02-03T05:36:43.967Z,100915.15
2023-02-03T05:39:11.594Z,100921.45
2023-02-03T05:41:53.824Z,100923.75
2023-02-03T05:44:22.558Z,100932.18
2023-02-03T05:46:49.973Z,100935.30
2023-02-03T05:49:16.923Z,100940.58
2023-02-03T05:51:43.986Z,100943.23
2023-02-03T05:54:11.185Z,100943.23
2023-02-03T05:56:38.480Z,100943.27
2023-02-03T05:59:05.957Z,100943.96
2023-02-03T06:01:34.004Z,100946.30
2023-02-03T06:04:02.146Z,100948.00
2023-02-03T06:06:33.381Z,100950.54
2023-02-03T06:09:04.026Z,100951.60
2023-02-03T06:11:31.348Z,100958.13
2023-02-03T06:13:58.671Z,100963.66
2023-02-03T06:16:26.544Z,100970.38
2023-02-03T06:18:54.327Z,100974.45
2023-02-03T06:21:22.456Z,100973.63
2023-02-03T06:23:49.725Z,100969.59
2023-02-03T06:26:16.871Z,100967.74
2023-02-03T06:28:44.373Z,100973.78
2023-02-03T06:31:11.454Z,100981.23
2023-02-03T06:33:38.994Z,100988.94
2023-02-03T06:36:06.359Z,100989.84
2023-02-03T06:38:33.572Z,100993.75
2023-02-03T06:41:00.605Z,100996.79
2023-02-03T06:43:28.116Z,100996.65
2023-02-03T06:45:55.135Z,100999.84
2023-02-03T06:48:23.318Z,101002.31
2023-02-03T06:50:50.470Z,101002.68
2023-02-03T06:53:17.974Z,101007.41
2023-02-03T06:55:45.201Z,101010.80
2023-02-03T06:58:12.381Z,101009.36
2023-02-03T07:00:39.697Z,101010.23
2023-02-03T07:03:07.007Z,101008.55
2023-02-03T07:05:35.439Z,101002.42
2023-02-03T07:08:02.492Z,100999.98
2023-02-03T07:10:30.205Z,101001.08
2023-02-03T07:13:03.192Z,101003.24
2023-02-03T07:15:30.870Z,101003.94
2023-02-03T07:17:58.005Z,101000.10
2023-02-03T07:20:25.547Z,101001.14
2023-02-03T07:22:54.387Z,101003.38
2023-02-03T07:25:21.833Z,101006.39
2023-02-03T07:27:48.806Z,101001.79
2023-02-03T07:30:16.603Z,101008.38
2023-02-03T07:32:50.509Z,101011.38
2023-02-03T07:35:17.587Z,101008.54
2023-02-03T07:37:44.705Z,101005.82
2023-02-03T07:40:12.234Z,101007.34
2023-02-03T07:42:42.945Z,101005.73
2023-02-03T07:45:10.581Z,101017.80
2023-02-03T07:47:38.524Z,101014.91
2023-02-03T07:50:06.075Z,101022.20
2023-02-03T07:52:34.333Z,101022.73
2023-02-03T07:55:01.913Z,101021.54
2023-02-03T07:57:29.806Z,101024.96
2023-02-03T07:59:57.578Z,101026.63
2023-02-03T08:02:24.678Z,101022.81
2023-02-03T08:04:51.852Z,101016.95
2023-02-03T08:07:18.953Z,101021.81
2023-02-03T08:09:45.929Z,101020.45
2023-02-03T08:12:12.995Z,101027.32
2023-02-03T08:14:42.279Z,101028.95
2023-02-03T08:17:09.268Z,101028.14
2023-02-03T08:19:36.544Z,101030.31
2023-02-03T08:22:03.469Z,101019.86
2023-02-03T08:24:30.763Z,101020.10
2023-02-03T08:26:57.921Z,101017.86
2023-02-03T08:29:25.745Z,101013.02
2023-02-03T08:31:54.828Z,101025.73
2023-02-03T08:34:22.556Z,101026.80
2023-02-03T08:36:51.216Z,101024.23
2023-02-03T08:39:18.341Z,101024.55
2023-02-03T08:41:45.284Z,101024.91
2023-02-03T08:44:13.357Z,101020.55
2023-02-03T08:46:43.774Z,101030.73
2023-02-03T08:49:10.740Z,101034.02
2023-02-03T08:51:38.353Z,101036.08
2023-02-03T08:54:05.446Z,101034.34
2023-02-03T08:56:36.190Z,101030.75
2023-02-03T08:59:03.294Z,101036.58
2023-02-03T09:01:30.649Z,101030.23
2023-02-03T09:03:57.782Z,101026.16
2023-02-03T09:06:26.276Z,101026.23
2023-02-03T09:08:53.405Z,101026.23
2023-02-03T09:11:20.932Z,101025.84
2023-02-03T09:13:49.561Z,101028.22
2023-02-03T09:16:17.766Z,101031.25
2023-02-03T09:18:45.509Z,101029.39
2023-02-03T09:21:20.931Z,101039.27
2023-02-03T09:24:03.270Z,101023.07
2023-02-03T09:26:30.548Z,101019.27
2023-02-03T09:28:58.182Z,101017.23
2023-02-03T09:31:25.272Z,101029.79
2023-02-03T09:33:52.594Z,101029.29
2023-02-03T09:36:19.735Z,101024.23
2023-02-03T09:38:46.919Z,101017.11
2023-02-03T09:41:43.710Z,101013.14
2023-02-03T09:44:18.061Z,101008.66
2023-02-03T09:46:48.147Z,101019.27
2023-02-03T09:49:37.676Z,101002.21
2023-02-03T09:52:22.284Z,101000.90
2023-02-03T09:54:52.643Z,101009.98
2023-02-03T09:57:26.073Z,100999.94
2023-02-03T09:59:54.069Z,100995.31
2023-02-03T10:02:40.074Z,101007.36
2023-02-03T10:05:23.612Z,101005.83
2023-02-03T10:08:15.333Z,101017.52
2023-02-03T10:11:11.323Z,100997.29
2023-02-03T10:13:49.481Z,100996.23
2023-02-03T10:16:22.738Z,100998.95
2023-02-03T10:18:51.695Z,100993.86
2023-02-03T10:21:18.745Z,101009.43
2023-02-03T10:23:46.845Z,101000.34
2023-02-03T10:26:16.895Z,101027.33
2023-02-03T10:28:55.021Z,101014.92
2023-02-03T10:31:32.112Z,101023.52
2023-02-03T10:34:01.391Z,101042.36
2023-02-03T10:36:39.482Z,101027.00
2023-02-03T10:39:11.350Z,101033.23
2023-02-03T10:41:38.409Z,101017.15
2023-02-03T10:44:06.247Z,101024.23
2023-02-03T10:46:35.429Z,101021.87
2023-02-03T10:49:02.481Z,101032.73
2023-02-03T10:51:36.138Z,101027.34
2023-02-03T10:54:05.321Z,101019.92
2023-02-03T10:56:35.787Z,101012.41
2023-02-03T10:59:03.343Z,101020.73
2023-02-03T11:01:40.588Z,101026.65
2023-02-03T11:04:26.270Z,101023.06
2023-02-03T11:07:01.062Z,101011.79
2023-02-03T11:09:34.835Z,101011.51
2023-02-03T11:12:14.230Z,101011.34
2023-02-03T11:14:47.459Z,101009.20
2023-02-03T11:17:19.221Z,100999.98
2023-02-03T11:19:46.741Z,101004.56
2023-02-03T11:22:35.747Z,100997.60
2023-02-03T11:25:05.821Z,100996.35
2023-02-03T11:27:33.382Z,100998.32
2023-02-03T11:30:31.586Z,101004.09
2023-02-03T11:33:02.121Z,101011.10
2023-02-03T11:35:31.205Z,101008.66
2023-02-03T11:38:00.821Z,100998.67
2023-02-03T11:40:29.443Z,100999.29
2023-02-03T11:42:56.832Z,100993.64
2023-02-03T11:45:25.994Z,100996.42
2023-02-03T11:47:59.066Z,100988.48
2023-02-03T11:50:41.018Z,100991.77
2023-02-03T11:53:14.039Z,100993.47
2023-02-03T11:55:47.595Z,100990.27
2023-02-03T11:58:18.496Z,100993.09
2023-02-03T12:01:10.898Z,100994.55
2023-02-03T12:03:49.487Z,100968.47
2023-02-03T12:06:29.134Z,100984.02
2023-02-03T12:09:47.500Z,100991.15
2023-02-03T12:12:15.990Z,100986.09
2023-02-03T12:14:52.299Z,100988.71
2023-02-03T12:17:40.704Z,100973.56
2023-02-03T12:20:18.731Z,100966.55
2023-02-03T12:23:06.689Z,100961.74
2023-02-03T12:25:58.731Z,100958.34
2023-02-03T12:28:52.569Z,100966.88
2023-02-03T12:31:40.215Z,100982.02
2023-02-03T12:34:24.772Z,101002.10
2023-02-03T12:36:58.516Z,100998.61
2023-02-03T12:39:33.693Z,100990.23
2023-02-03T12:42:07.560Z,100987.41
2023-02-03T12:44:41.572Z,100994.64
2023-02-03T12:47:21.750Z,101003.48
2023-02-03T12:50:00.473Z,101004.39
2023-02-03T12:52:34.580Z,101013.84
2023-02-03T12:55:13.445Z,101006.22
2023-02-03T12:57:46.871Z,101018.27
2023-02-03T13:00:36.033Z,101022.41
2023-02-03T13:03:40.787Z,100993.96
2023-02-03T13:06:17.266Z,101002.65
2023-02-03T13:08:51.835Z,100990.29
2023-02-03T13:11:33.632Z,100992.02
2023-02-03T13:14:14.902Z,100997.80
2023-02-03T13:16:44.357Z,101010.95
2023-02-03T13:19:16.755Z,100989.45
2023-02-03T13:21:46.172Z,101002.20
2023-02-03T13:24:13.231Z,101001.55
2023-02-03T13:27:03.680Z,101005.45
2023-02-03T13:29:43.829Z,100993.33
2023-02-03T13:32:18.479Z,100990.73
2023-02-03T13:35:24.803Z,101000.96
2023-02-03T13:38:11.292Z,101010.96
2023-02-03T13:41:07.666Z,101029.27
2023-02-03T13:43:38.929Z,101015.23
2023-02-03T13:46:09.201Z,101023.09
2023-02-03T13:48:36.747Z,101015.93
2023-02-03T13:51:07.461Z,101019.94
2023-02-03T13:53:39.619Z,101025.06
2023-02-03T13:56:08.759Z,101014.78
2023-02-03T13:58:38.126Z,101016.20
2023-02-03T14:01:29.889Z,101012.61
2023-02-03T14:03:57.629Z,101020.49
2023-02-03T14:06:39.339Z,101015.64
2023-02-03T14:09:21.717Z,101018.21
2023-02-03T14:11:52.411Z,101023.50
2023-02-03T14:14:22.391Z,101031.59
2023-02-03T14:16:55.097Z,101041.13
2023-02-03T14:19:22.283Z,101023.31
2023-02-03T14:22:07.579Z,101016.34
2023-02-03T14:24:39.899Z,101009.97
2023-02-03T14:27:36.714Z,101007.24
2023-02-03T14:30:09.180Z,101014.33
2023-02-03T14:32:55.809Z,101014.77
2023-02-03T14:35:33.479Z,101004.17
2023-02-03T14:38:02.561Z,100995.16
2023-02-03T14:40:44.982Z,100997.45
2023-02-03T14:43:40.259Z,101003.04
2023-02-03T14:46:38.165Z,100998.77
2023-02-03T14:49:23.545Z,100997.23
2023-02-03T14:52:04.680Z,100997.13
2023-02-03T14:54:31.775Z,101001.84
2023-02-03T14:57:43.846Z,101002.48
2023-02-03T15:00:19.736Z,101000.14
2023-02-03T15:03:11.757Z,101003.59
2023-02-03T15:05:55.764Z,101003.48
2023-02-03T15:08:42.391Z,101006.25
2023-02-03T15:11:16.024Z,101007.05
2023-02-03T15:13:43.559Z,101007.35
2023-02-03T15:16:14.632Z,101001.98
2023-02-03T15:18:41.690Z,100997.48
2023-02-03T15:21:18.708Z,100998.46
2023-02-03T15:23:50.438Z,101004.88
2023-02-03T15:26:20.352Z,101007.61
2023-02-03T15:28:57.722Z,101005.20
2023-02-03T15:31:41.402Z,101007.52
2023-02-03T15:34:26.803Z,101011.74
2023-02-03T15:36:55.672Z,101019.44
2023-02-03T15:39:45.521Z,101021.63
2023-02-03T15:42:43.707Z,101027.48
2023-02-03T15:45:37.314Z,101026.70
2023-02-03T15:48:30.777Z,101025.02
2023-02-03T15:51:02.142Z,101023.05
2023-02-03T15:53:45.359Z,101022.14
2023-02-03T15:56:37.329Z,101020.89
2023-02-03T15:59:05.067Z,101023.03
2023-02-03T16:01:32.100Z,101021.27
2023-02-03T16:03:59.216Z,101019.48
2023-02-03T16:06:36.440Z,101028.05
2023-02-03T16:09:06.361Z,101035.22
2023-02-03T16:11:34.963Z,101050.98
2023-02-03T16:14:07.126Z,101060.52
2023-02-03T16:16:43.756Z,101062.05
2023-02-03T16:19:20.021Z,101060.41
2023-02-03T16:21:51.799Z,101063.17
2023-02-03T16:24:43.800Z,101053.45
2023-02-03T16:27:26.474Z,101055.48
2023-02-03T16:30:12.444Z,101068.08
2023-02-03T16:32:58.534Z,101065.34
2023-02-03T16:35:43.929Z,101061.55
2023-02-03T16:38:34.309Z,101062.00
2023-02-03T16:41:21.033Z,101054.74
2023-02-03T16:44:07.427Z,101057.19
2023-02-03T16:46:53.586Z,101059.49
2023-02-03T16:49:40.365Z,101056.16
2023-02-03T16:52:08.157Z,101049.33
2023-02-03T16:54:35.349Z,101044.45
2023-02-03T16:57:02.845Z,101038.52
2023-02-03T16:59:30.138Z,101040.17
2023-02-03T17:01:57.411Z,101039.66
2023-02-03T17:04:24.628Z,101039.64
2023-02-03T17:06:51.917Z,101028.94
2023-02-03T17:09:24.494Z,101025.11
2023-02-03T17:11:51.646Z,101021.85
2023-02-03T17:14:20.344Z,101024.06
2023-02-03T17:16:48.502Z,101028.26
2023-02-03T17:19:16.581Z,101026.31
2023-02-03T17:21:43.754Z,101021.02
2023-02-03T17:24:11.948Z,101027.05
2023-02-03T17:26:39.377Z,101023.96
2023-02-03T17:29:06.479Z,101027.71
2023-02-03T17:31:36.254Z,101026.14
2023-02-03T17:34:05.351Z,101024.56
2023-02-03T17:36:33.036Z,101023.30
2023-02-03T17:55:33.275Z,101018.46
2023-02-03T17:58:00.659Z,101020.26
2023-02-03T18:00:27.994Z,101025.38
2023-02-03T18:02:56.915Z,101027.83
2023-02-03T18:05:25.070Z,101030.52
2023-02-03T18:07:52.586Z,101036.89
2023-02-03T18:10:19.671Z,101037.52
2023-02-03T18:12:48.052Z,101036.65
2023-02-03T18:15:15.146Z,101038.75
2023-02-03T18:18:04.014Z,101035.41
2023-02-03T18:20:35.253Z,101029.73
2023-02-03T18:23:06.404Z,101028.90
2023-02-03T18:25:35.767Z,101025.41
2023-02-03T18:28:05.352Z,101026.61
2023-02-03T18:30:32.875Z,101029.20
2023-02-03T18:33:01.564Z,101028.10
2023-02-03T18:35:29.812Z,101024.92
2023-02-03T18:37:57.182Z,101020.88
2023-02-03T18:40:24.873Z,101023.70
2023-02-03T18:42:55.655Z,101019.66
2023-02-03T18:45:24.353Z,101018.63
2023-02-03T18:47:51.520Z,101016.00
2023-02-03T18:50:19.895Z,101010.56
2023-02-03T18:52:47.670Z,101008.31
2023-02-03T18:55:16.842Z,101006.69
2023-02-03T18:57:44.284Z,101008.27
2023-02-03T19:00:13.624Z,101008.77
2023-02-03T21:05:02.438Z,100964.88
2023-02-03T21:07:31.430Z,100964.02
2023-02-03T21:10:18.982Z,100963.59
2023-02-03T21:12:47.864Z,100962.27
2023-02-03T21:15:27.767Z,100962.27
2023-02-03T21:17:56.255Z,100961.31
2023-02-03T21:20:29.764Z,100958.22
2023-02-03T21:23:02.884Z,100958.63
2023-02-03T21:25:32.920Z,100959.69
2023-02-03T21:28:01.369Z,100956.35
2023-02-03T21:30:35.247Z,100959.63
2023-02-03T21:33:26.177Z,100956.80
2023-02-03T21:35:55.628Z,100957.02
2023-02-03T21:38:31.540Z,100955.69
2023-02-03T21:41:01.385Z,100952.59
2023-02-03T21:43:30.526Z,100953.84
2023-02-03T21:45:59.227Z,100946.93
2023-02-03T21:48:38.164Z,100943.69
2023-02-03T21:51:15.491Z,100939.71
2023-02-03T21:54:30.417Z,100935.77
2023-02-03T21:56:58.948Z,100933.49
2023-02-03T21:59:30.007Z,100934.05
2023-02-03T22:01:59.481Z,100931.25
2023-02-03T22:04:31.068Z,100929.48
2023-02-03T22:06:59.666Z,100929.96
2023-02-03T22:09:28.116Z,100934.47
2023-02-03T22:12:16.536Z,100937.67
2023-02-03T22:14:45.651Z,100931.95
2023-02-03T22:17:15.295Z,100930.95
2023-02-03T22:19:44.258Z,100926.41
2023-02-03T22:22:12.966Z,100925.91
2023-02-03T22:24:41.254Z,100923.27
2023-02-03T22:27:09.688Z,100916.59
2023-02-03T22:29:38.172Z,100919.73
2023-02-03T22:32:07.184Z,100921.34
2023-02-03T22:34:35.483Z,100919.24
2023-02-03T22:37:03.963Z,100917.72
2023-02-03T22:39:32.608Z,100913.36
2023-02-03T22:42:01.269Z,100914.12
2023-02-03T22:44:29.869Z,100907.98
2023-02-03T22:46:58.150Z,100904.92
2023-02-03T22:49:26.728Z,100903.64
2023-02-03T22:51:55.650Z,100901.98
2023-02-03T22:54:24.110Z,100900.36
2023-02-03T22:56:53.277Z,100897.89
2023-02-03T22:59:22.018Z,100889.62
2023-02-03T23:01:50.766Z,100892.09
2023-02-03T23:04:19.066Z,100894.54
2023-02-03T23:06:47.760Z,100889.25
2023-02-03T23:09:16.257Z,100890.45
2023-02-03T23:11:44.598Z,100889.54
2023-02-03T23:14:14.087Z,100883.23
2023-02-03T23:16:42.769Z,100881.11
2023-02-03T23:19:11.283Z,100877.24
2023-02-03T23:21:40.554Z,100871.57
2023-02-03T23:24:08.902Z,100868.48
2023-02-03T23:26:37.717Z,100862.11
2023-02-03T23:29:06.709Z,100862.45
2023-02-03T23:31:35.606Z,100863.10
2023-02-03T23:34:22.964Z,100861.80
2023-02-03T23:36:51.720Z,100856.93
2023-02-03T23:39:20.194Z,100853.44
2023-02-03T23:41:49.111Z,100854.46
2023-02-03T23:44:17.577Z,100853.83
2023-02-03T23:46:46.077Z,100850.36
2023-02-03T23:49:14.624Z,100855.08
2023-02-03T23:51:43.358Z,100853.98
2023-02-03T23:54:12.218Z,100852.40
2023-02-03T23:56:40.787Z,100856.73
2023-02-03T23:59:09.772Z,100855.77
